createdAt,value
2023-04-27T00:01:20.955Z,6.15
2023-04-27T00:03:47.828Z,6.20
2023-04-27T00:06:14.704Z,6.13
2023-04-27T00:08:42.117Z,6.20
2023-04-27T00:11:08.898Z,6.68
2023-04-27T00:13:35.625Z,6.68
2023-04-27T00:16:03.863Z,6.75
2023-04-27T00:18:32.120Z,6.30
2023-04-27T00:20:59.429Z,6.38
2023-04-27T00:23:26.375Z,8.00
2023-04-27T00:25:53.150Z,8.23
2023-04-27T00:28:19.859Z,8.30
2023-04-27T00:30:46.711Z,7.53
2023-04-27T00:33:13.417Z,7.53
2023-04-27T00:35:40.820Z,7.32
2023-04-27T00:38:07.596Z,7.45
2023-04-27T00:40:34.366Z,7.43
2023-04-27T00:43:01.073Z,6.75
2023-04-27T00:45:27.988Z,7.70
2023-04-27T00:47:55.789Z,6.07
2023-04-27T00:50:29.343Z,6.45
2023-04-27T00:52:56.605Z,6.17
2023-04-27T00:55:26.558Z,6.70
2023-04-27T00:57:53.316Z,7.38
2023-04-27T01:00:20.204Z,7.13
2023-04-27T01:02:49.204Z,7.03
2023-04-27T01:05:18.069Z,6.73
2023-04-27T01:07:46.499Z,6.45
2023-04-27T01:10:13.279Z,7.70
2023-04-27T01:12:40.009Z,6.82
2023-04-27T01:15:07.566Z,7.20
2023-04-27T01:17:34.451Z,6.95
2023-04-27T01:20:02.454Z,6.53
2023-04-27T01:22:29.223Z,7.40
2023-04-27T01:24:56.012Z,6.17
2023-04-27T01:27:23.797Z,6.70
2023-04-27T01:29:50.502Z,6.38
2023-04-27T01:32:17.243Z,6.95
2023-04-27T01:34:43.974Z,6.78
2023-04-27T01:37:11.057Z,5.80
2023-04-27T01:39:38.034Z,7.18
2023-04-27T01:42:04.961Z,6.32
2023-04-27T01:44:31.802Z,6.85
2023-04-27T01:46:58.703Z,6.70
2023-04-27T01:49:25.498Z,6.60
2023-04-27T01:51:52.408Z,6.43
2023-04-27T01:54:19.103Z,6.93
2023-04-27T01:56:46.019Z,6.82
2023-04-27T01:59:12.881Z,6.97
2023-04-27T02:01:41.052Z,6.50
2023-04-27T02:04:08.091Z,6.17
2023-04-27T02:06:35.625Z,5.35
2023-04-27T02:09:02.386Z,5.82
2023-04-27T02:11:29.584Z,5.93
2023-04-27T02:13:56.296Z,5.47
2023-04-27T02:16:30.857Z,5.53
2023-04-27T02:18:58.870Z,5.55
2023-04-27T02:21:25.639Z,5.55
2023-04-27T02:23:52.404Z,5.57
2023-04-27T02:26:20.444Z,5.30
2023-04-27T02:28:50.151Z,5.80
2023-04-27T02:31:17.385Z,5.03
2023-04-27T02:33:45.639Z,5.73
2023-04-27T02:36:12.380Z,5.90
2023-04-27T02:38:39.078Z,5.80
2023-04-27T02:41:05.772Z,4.95
2023-04-27T02:43:34.038Z,5.47
2023-04-27T02:46:04.394Z,5.43
2023-04-27T02:48:31.496Z,5.85
2023-04-27T02:50:58.256Z,5.45
2023-04-27T02:53:25.068Z,5.70
2023-04-27T02:55:51.805Z,5.13
2023-04-27T02:58:18.534Z,5.63
2023-04-27T03:00:45.452Z,5.20
2023-04-27T03:03:12.648Z,5.53
2023-04-27T03:05:39.542Z,5.28
2023-04-27T03:08:06.621Z,5.53
2023-04-27T03:10:33.452Z,6.07
2023-04-27T03:13:00.223Z,5.87
2023-04-27T03:15:28.302Z,5.35
2023-04-27T03:17:55.626Z,6.53
2023-04-27T03:20:22.545Z,5.72
2023-04-27T03:22:49.298Z,5.73
2023-04-27T03:25:16.290Z,5.47
2023-04-27T03:27:43.530Z,5.65
2023-04-27T03:30:12.181Z,6.10
2023-04-27T03:32:39.096Z,5.72
2023-04-27T03:35:06.388Z,5.50
2023-04-27T03:37:34.174Z,5.22
2023-04-27T03:40:01.202Z,5.37
2023-04-27T03:42:29.553Z,4.93
2023-04-27T03:44:56.389Z,5.30
2023-04-27T03:47:23.317Z,5.22
2023-04-27T03:49:50.302Z,5.27
2023-04-27T03:52:17.106Z,5.05
2023-04-27T03:54:43.898Z,4.53
2023-04-27T03:57:11.743Z,4.38
2023-04-27T03:59:38.674Z,5.47
2023-04-27T04:02:05.691Z,4.75
2023-04-27T04:04:32.845Z,4.40
2023-04-27T04:06:59.705Z,4.75
2023-04-27T04:09:26.517Z,4.83
2023-04-27T04:11:54.069Z,4.88
2023-04-27T04:14:20.878Z,5.00
2023-04-27T04:16:47.571Z,4.60
2023-04-27T04:19:14.753Z,5.05
2023-04-27T04:21:41.824Z,5.00
2023-04-27T04:24:10.139Z,5.25
2023-04-27T04:26:38.584Z,5.20
2023-04-27T04:29:05.410Z,4.70
2023-04-27T04:31:33.725Z,4.85
2023-04-27T04:34:01.960Z,5.18
2023-04-27T04:36:28.885Z,4.60
2023-04-27T04:38:57.228Z,4.70
2023-04-27T04:41:25.557Z,4.80
2023-04-27T04:43:52.343Z,4.43
2023-04-27T04:46:20.113Z,4.70
2023-04-27T04:48:47.105Z,4.55
2023-04-27T04:51:14.136Z,5.10
2023-04-27T04:53:40.876Z,5.27
2023-04-27T04:56:11.674Z,5.28
2023-04-27T04:58:38.769Z,5.05
2023-04-27T05:01:06.748Z,4.82
2023-04-27T05:03:33.919Z,5.10
2023-04-27T05:06:00.849Z,4.50
2023-04-27T05:08:27.614Z,4.57
2023-04-27T05:10:54.896Z,4.97
2023-04-27T05:13:22.415Z,5.35
2023-04-27T05:15:49.177Z,5.63
2023-04-27T05:18:16.008Z,5.85
2023-04-27T05:20:42.839Z,4.83
2023-04-27T05:23:09.672Z,4.75
2023-04-27T05:25:41.498Z,5.07
2023-04-27T05:28:09.399Z,4.97
2023-04-27T05:30:36.702Z,5.23
2023-04-27T05:33:04.301Z,4.93
2023-04-27T05:35:31.800Z,5.18
2023-04-27T05:37:58.519Z,5.05
2023-04-27T05:40:25.718Z,4.80
2023-04-27T05:42:52.447Z,4.88
2023-04-27T05:45:19.555Z,5.45
2023-04-27T05:47:46.313Z,4.63
2023-04-27T05:50:13.204Z,4.53
2023-04-27T05:52:40.041Z,4.95
2023-04-27T05:55:08.144Z,6.57
2023-04-27T05:57:34.918Z,9.03
2023-04-27T06:00:02.000Z,9.10
2023-04-27T06:02:39.413Z,6.68
2023-04-27T06:05:06.993Z,5.25
2023-04-27T06:07:33.942Z,5.17
2023-04-27T06:10:00.802Z,5.43
2023-04-27T06:12:27.686Z,5.47
2023-04-27T06:14:54.418Z,5.60
2023-04-27T06:17:22.288Z,5.05
2023-04-27T06:19:50.134Z,4.77
2023-04-27T06:22:16.863Z,4.60
2023-04-27T06:24:43.608Z,5.22
2023-04-27T06:27:10.455Z,5.80
2023-04-27T06:29:37.178Z,6.73
2023-04-27T06:32:06.767Z,6.20
2023-04-27T06:34:34.618Z,4.97
2023-04-27T06:37:02.403Z,5.13
2023-04-27T06:39:29.670Z,4.60
2023-04-27T06:41:56.372Z,6.35
2023-04-27T06:44:25.233Z,5.15
2023-04-27T06:46:51.960Z,5.28
2023-04-27T06:49:18.679Z,5.88
2023-04-27T06:51:46.691Z,5.20
2023-04-27T06:54:13.474Z,4.93
2023-04-27T06:56:40.402Z,6.05
2023-04-27T06:59:08.212Z,6.03
2023-04-27T07:01:35.170Z,4.82
2023-04-27T07:04:03.527Z,5.03
2023-04-27T07:06:31.196Z,4.25
2023-04-27T07:08:58.176Z,4.57
2023-04-27T07:11:25.002Z,4.80
2023-04-27T07:13:51.719Z,5.10
2023-04-27T07:16:19.654Z,4.70
2023-04-27T07:18:46.354Z,4.20
2023-04-27T07:21:13.085Z,4.80
2023-04-27T07:23:43.258Z,4.55
2023-04-27T07:26:10.112Z,4.60
2023-04-27T07:28:36.776Z,4.07
2023-04-27T07:31:06.758Z,3.72
2023-04-27T07:33:34.153Z,3.70
2023-04-27T07:36:02.593Z,3.58
2023-04-27T07:38:31.243Z,3.70
2023-04-27T07:41:01.921Z,3.60
2023-04-27T07:43:29.646Z,4.10
2023-04-27T07:45:58.246Z,3.30
2023-04-27T07:48:25.489Z,5.38
2023-04-27T07:50:52.574Z,3.60
2023-04-27T07:53:19.361Z,3.50
2023-04-27T07:55:46.372Z,3.97
2023-04-27T07:58:13.353Z,3.75
2023-04-27T08:00:40.075Z,3.60
2023-04-27T08:03:08.069Z,3.83
2023-04-27T08:05:35.596Z,3.07
2023-04-27T08:08:02.951Z,2.35
2023-04-27T08:10:29.720Z,2.65
2023-04-27T08:12:56.459Z,3.17
2023-04-27T08:15:23.176Z,2.83
2023-04-27T08:17:49.995Z,2.73
2023-04-27T08:20:16.852Z,2.13
2023-04-27T08:22:44.145Z,2.70
2023-04-27T08:25:10.877Z,3.25
2023-04-27T08:27:38.908Z,2.55
2023-04-27T08:30:06.786Z,2.43
2023-04-27T08:32:33.582Z,2.85
2023-04-27T08:35:00.373Z,2.90
2023-04-27T08:37:27.142Z,2.70
2023-04-27T08:39:54.000Z,2.83
2023-04-27T08:42:21.602Z,2.93
2023-04-27T08:44:48.385Z,2.63
2023-04-27T08:47:15.247Z,2.90
2023-04-27T08:49:42.822Z,2.63
2023-04-27T08:52:16.329Z,2.53
2023-04-27T08:54:43.632Z,2.57
2023-04-27T08:57:14.397Z,2.90
2023-04-27T08:59:41.623Z,2.85
2023-04-27T09:02:21.668Z,2.67
2023-04-27T09:04:48.612Z,2.70
2023-04-27T09:07:17.429Z,2.80
2023-04-27T09:09:45.334Z,3.00
2023-04-27T09:12:16.456Z,3.00
2023-04-27T09:14:43.883Z,2.53
2023-04-27T09:17:10.958Z,2.67
2023-04-27T09:19:38.036Z,2.60
2023-04-27T09:22:10.864Z,2.80
2023-04-27T09:24:38.079Z,2.85
2023-04-27T09:27:06.489Z,3.15
2023-04-27T09:29:38.380Z,3.35
2023-04-27T09:32:19.036Z,3.00
2023-04-27T09:34:46.074Z,2.80
2023-04-27T09:37:14.535Z,2.95
2023-04-27T09:39:42.358Z,3.20
2023-04-27T09:42:09.685Z,3.13
2023-04-27T09:44:36.494Z,3.20
2023-04-27T09:47:03.287Z,3.08
2023-04-27T09:49:30.185Z,2.78
2023-04-27T09:51:58.733Z,2.92
2023-04-27T09:54:29.780Z,3.28
2023-04-27T09:57:26.269Z,3.37
2023-04-27T10:00:28.353Z,3.22
2023-04-27T10:03:16.755Z,3.00
2023-04-27T10:06:20.342Z,3.10
2023-04-27T10:08:47.346Z,3.33
2023-04-27T10:11:20.852Z,2.93
2023-04-27T10:13:55.288Z,2.60
2023-04-27T10:16:22.527Z,3.08
2023-04-27T10:18:55.059Z,3.20
2023-04-27T10:21:23.589Z,3.03
2023-04-27T10:23:52.328Z,3.23
2023-04-27T10:26:23.169Z,3.10
2023-04-27T10:29:10.091Z,3.58
2023-04-27T10:31:44.227Z,3.03
2023-04-27T10:34:15.721Z,3.30
2023-04-27T10:36:42.626Z,3.57
2023-04-27T10:39:25.624Z,3.53
2023-04-27T10:41:59.732Z,3.38
2023-04-27T10:44:29.149Z,3.70
2023-04-27T10:46:59.798Z,3.53
2023-04-27T10:49:30.581Z,3.50
2023-04-27T10:51:59.347Z,4.85
2023-04-27T10:54:28.751Z,3.65
2023-04-27T10:57:06.339Z,3.42
2023-04-27T10:59:34.310Z,3.33
2023-04-27T11:02:01.497Z,3.60
2023-04-27T11:04:39.309Z,3.67
2023-04-27T11:07:10.319Z,3.55
2023-04-27T11:09:38.547Z,3.65
2023-04-27T11:12:12.416Z,3.45
2023-04-27T11:14:39.194Z,3.27
2023-04-27T11:17:06.310Z,3.03
2023-04-27T11:19:33.233Z,3.20
2023-04-27T11:22:06.590Z,3.67
2023-04-27T11:24:33.730Z,4.03
2023-04-27T11:27:00.418Z,3.90
2023-04-27T11:29:38.489Z,3.78
2023-04-27T11:32:05.939Z,3.72
2023-04-27T11:34:37.007Z,3.92
2023-04-27T11:39:38.569Z,3.83
2023-04-27T11:42:22.239Z,3.58
2023-04-27T11:45:10.518Z,4.63
2023-04-27T11:47:37.935Z,3.58
2023-04-27T11:50:08.332Z,3.72
2023-04-27T11:52:36.444Z,4.13
2023-04-27T11:55:04.603Z,3.65
2023-04-27T11:57:33.577Z,3.35
2023-04-27T12:00:02.492Z,3.55
2023-04-27T12:02:41.045Z,3.72
2023-04-27T12:05:09.562Z,3.97
2023-04-27T12:07:36.792Z,3.25
2023-04-27T12:10:04.562Z,4.13
2023-04-27T12:12:31.272Z,3.55
2023-04-27T12:14:58.766Z,3.60
2023-04-27T12:17:25.664Z,3.90
2023-04-27T12:19:52.626Z,4.07
2023-04-27T12:22:19.749Z,4.43
2023-04-27T12:24:46.468Z,4.18
2023-04-27T12:27:13.177Z,4.00
2023-04-27T12:29:39.987Z,4.50
2023-04-27T12:32:06.718Z,3.92
2023-04-27T12:34:33.646Z,4.22
2023-04-27T12:37:00.977Z,4.40
2023-04-27T12:39:27.754Z,4.55
2023-04-27T12:41:54.793Z,4.60
2023-04-27T12:44:21.808Z,4.68
2023-04-27T12:46:48.796Z,3.97
2023-04-27T12:49:16.221Z,4.18
2023-04-27T12:51:43.045Z,4.70
2023-04-27T12:54:11.130Z,4.07
2023-04-27T12:56:38.228Z,4.53
2023-04-27T12:59:06.240Z,4.05
2023-04-27T13:01:33.237Z,4.20
2023-04-27T13:04:02.198Z,3.90
2023-04-27T13:06:31.138Z,3.80
2023-04-27T13:08:58.628Z,4.18
2023-04-27T13:11:26.151Z,4.55
2023-04-27T13:13:52.957Z,5.40
2023-04-27T13:16:21.738Z,4.60
2023-04-27T13:18:50.539Z,4.67
2023-04-27T13:21:17.319Z,4.45
2023-04-27T13:23:44.073Z,4.65
2023-04-27T13:26:11.416Z,5.00
2023-04-27T13:28:38.122Z,5.47
2023-04-27T13:31:05.378Z,4.10
2023-04-27T13:33:39.958Z,4.18
2023-04-27T13:36:07.197Z,4.20
2023-04-27T13:38:33.948Z,4.50
2023-04-27T13:41:00.780Z,3.90
2023-04-27T13:43:27.628Z,4.60
2023-04-27T13:45:55.748Z,4.30
2023-04-27T13:48:22.729Z,4.18
2023-04-27T13:50:49.602Z,4.30
2023-04-27T13:53:16.778Z,3.90
2023-04-27T13:55:44.368Z,3.47
2023-04-27T13:58:13.160Z,4.18
2023-04-27T14:00:39.989Z,3.45
2023-04-27T14:03:08.751Z,3.03
2023-04-27T14:05:35.798Z,3.80
2023-04-27T14:08:02.555Z,4.00
2023-04-27T14:10:30.340Z,3.55
2023-04-27T14:12:57.258Z,3.80
2023-04-27T14:15:24.092Z,3.92
2023-04-27T14:17:51.047Z,3.33
2023-04-27T14:20:17.895Z,3.60
2023-04-27T14:22:44.661Z,3.60
2023-04-27T14:25:11.432Z,3.20
2023-04-27T14:27:38.106Z,3.47
2023-04-27T14:30:05.456Z,3.58
2023-04-27T14:32:32.310Z,3.53
2023-04-27T14:34:59.088Z,3.30
2023-04-27T14:37:26.028Z,3.53
2023-04-27T14:39:52.774Z,3.58
2023-04-27T14:42:19.447Z,3.42
2023-04-27T14:44:47.607Z,3.23
2023-04-27T14:47:15.494Z,3.08
2023-04-27T14:49:42.320Z,3.20
2023-04-27T14:52:09.252Z,2.92
2023-04-27T14:54:38.348Z,2.95
2023-04-27T14:57:05.114Z,3.20
2023-04-27T14:59:34.045Z,2.97
2023-04-27T15:02:01.072Z,2.90
2023-04-27T15:04:28.230Z,3.17
2023-04-27T15:06:55.327Z,3.05
2023-04-27T15:09:22.056Z,3.03
2023-04-27T15:11:48.778Z,2.75
2023-04-27T15:14:15.528Z,2.80
2023-04-27T15:16:42.190Z,3.15
2023-04-27T15:19:08.949Z,3.03
2023-04-27T15:21:35.753Z,2.70
2023-04-27T15:24:02.419Z,2.38
2023-04-27T15:26:29.113Z,2.75
2023-04-27T15:28:58.075Z,2.92
2023-04-27T15:31:25.037Z,2.40
2023-04-27T15:33:53.715Z,2.40
2023-04-27T15:36:22.914Z,3.08
2023-04-27T15:38:51.776Z,3.72
2023-04-27T15:41:19.024Z,3.60
2023-04-27T15:43:45.933Z,2.47
2023-04-27T15:46:12.894Z,3.20
2023-04-27T15:48:39.589Z,2.95
2023-04-27T15:51:09.545Z,2.60
2023-04-27T15:53:37.215Z,3.05
2023-04-27T15:56:04.125Z,2.85
2023-04-27T15:58:30.831Z,2.30
2023-04-27T16:00:59.943Z,2.55
2023-04-27T16:03:26.845Z,3.00
2023-04-27T16:05:53.785Z,2.45
2023-04-27T16:08:20.625Z,2.95
2023-04-27T16:10:47.442Z,2.80
2023-04-27T16:13:14.129Z,3.25
2023-04-27T16:15:40.902Z,2.30
2023-04-27T16:18:07.823Z,2.78
2023-04-27T16:20:36.522Z,2.53
2023-04-27T16:23:03.631Z,2.87
2023-04-27T16:25:30.380Z,2.55
2023-04-27T16:27:58.825Z,2.45
2023-04-27T16:30:25.763Z,2.95
2023-04-27T16:32:53.032Z,2.90
2023-04-27T16:35:19.862Z,3.23
2023-04-27T16:37:46.586Z,2.83
2023-04-27T16:40:13.488Z,2.80
2023-04-27T16:42:40.713Z,3.53
2023-04-27T16:45:10.556Z,3.35
2023-04-27T16:47:38.081Z,2.60
2023-04-27T16:50:05.145Z,2.67
2023-04-27T16:52:31.888Z,2.78
2023-04-27T16:54:58.669Z,3.10
2023-04-27T16:57:25.872Z,2.92
2023-04-27T16:59:52.632Z,3.03
2023-04-27T17:02:25.189Z,3.25
2023-04-27T17:04:54.106Z,2.95
2023-04-27T17:07:21.273Z,3.50
2023-04-27T17:09:48.059Z,3.25
2023-04-27T17:12:16.640Z,3.43
2023-04-27T17:14:43.374Z,4.05
2023-04-27T17:17:10.508Z,3.30
2023-04-27T17:19:37.263Z,3.30
2023-04-27T17:22:04.451Z,3.53
2023-04-27T17:24:31.298Z,3.37
2023-04-27T17:26:57.978Z,3.20
2023-04-27T17:29:24.763Z,3.28
2023-04-27T17:31:51.602Z,3.50
2023-04-27T17:34:18.348Z,3.88
2023-04-27T17:36:46.120Z,3.70
2023-04-27T17:39:13.808Z,2.97
2023-04-27T17:41:41.192Z,2.70
2023-04-27T17:44:08.062Z,3.75
2023-04-27T17:46:34.981Z,3.03
2023-04-27T17:49:01.723Z,3.37
2023-04-27T17:51:28.465Z,3.65
2023-04-27T17:53:55.475Z,3.85
2023-04-27T17:56:22.479Z,3.10
2023-04-27T17:58:49.190Z,3.50
2023-04-27T18:01:16.188Z,3.37
2023-04-27T18:03:43.168Z,3.20
2023-04-27T18:06:10.031Z,3.85
2023-04-27T18:08:36.794Z,4.18
2023-04-27T18:11:03.869Z,4.10
2023-04-27T18:13:32.444Z,3.90
2023-04-27T18:15:59.626Z,3.83
2023-04-27T18:18:26.833Z,3.65
2023-04-27T18:20:53.588Z,4.18
2023-04-27T18:23:20.642Z,3.85
2023-04-27T18:25:47.406Z,4.50
2023-04-27T18:28:14.148Z,3.78
2023-04-27T18:30:41.307Z,4.72
2023-04-27T18:33:08.270Z,4.35
2023-04-27T18:35:35.259Z,4.00
2023-04-27T18:38:03.468Z,3.80
2023-04-27T18:40:31.528Z,4.28
2023-04-27T18:42:58.224Z,4.35
2023-04-27T18:45:24.877Z,4.32
2023-04-27T18:47:51.661Z,4.75
2023-04-27T18:50:19.143Z,4.83
2023-04-27T18:52:46.685Z,4.45
2023-04-27T18:55:17.680Z,4.32
2023-04-27T18:57:45.018Z,4.88
2023-04-27T19:00:12.986Z,4.63
2023-04-27T19:02:40.238Z,4.77
2023-04-27T19:05:13.017Z,4.20
2023-04-27T19:07:40.675Z,5.00
2023-04-27T19:10:08.031Z,4.10
2023-04-27T19:12:35.005Z,4.70
2023-04-27T19:15:01.766Z,3.87
2023-04-27T19:17:28.821Z,4.53
2023-04-27T19:19:55.961Z,4.53
2023-04-27T19:22:22.798Z,4.15
2023-04-27T19:24:49.515Z,4.57
2023-04-27T19:27:16.314Z,5.13
2023-04-27T19:29:53.480Z,5.10
2023-04-27T19:32:21.336Z,4.60
2023-04-27T19:34:48.695Z,4.90
2023-04-27T19:37:15.838Z,4.60
2023-04-27T19:39:42.683Z,4.13
2023-04-27T19:42:09.530Z,4.78
2023-04-27T19:44:36.423Z,5.07
2023-04-27T19:47:03.139Z,5.10
2023-04-27T19:49:33.548Z,4.38
2023-04-27T19:52:00.697Z,4.63
2023-04-27T19:54:27.575Z,4.60
2023-04-27T19:56:54.915Z,4.57
2023-04-27T19:59:21.993Z,4.55
2023-04-27T20:01:49.071Z,4.60
2023-04-27T20:04:17.970Z,4.30
2023-04-27T20:06:46.248Z,4.63
2023-04-27T20:09:12.964Z,4.82
2023-04-27T20:11:39.883Z,4.03
2023-04-27T20:14:06.603Z,4.70
2023-04-27T20:16:33.436Z,4.17
2023-04-27T20:19:00.151Z,4.90
2023-04-27T20:21:27.942Z,4.78
2023-04-27T20:23:54.694Z,4.20
2023-04-27T20:26:22.406Z,4.32
2023-04-27T20:28:49.151Z,4.40
2023-04-27T20:31:16.040Z,4.60
2023-04-27T20:33:42.855Z,4.80
2023-04-27T20:36:17.050Z,4.22
2023-04-27T20:38:45.336Z,4.82
2023-04-27T20:41:12.360Z,4.37
2023-04-27T20:43:39.883Z,4.43
2023-04-27T20:46:13.405Z,4.57
2023-04-27T20:48:40.190Z,4.10
2023-04-27T20:51:06.930Z,4.60
2023-04-27T20:53:33.837Z,4.97
2023-04-27T20:56:00.639Z,4.57
2023-04-27T20:58:27.345Z,4.40
2023-04-27T21:00:54.189Z,4.07
2023-04-27T21:03:21.292Z,3.88
2023-04-27T21:05:49.121Z,4.47
2023-04-27T21:08:16.879Z,4.25
2023-04-27T21:10:44.231Z,4.75
2023-04-27T21:13:11.171Z,5.10
2023-04-27T21:15:38.656Z,4.72
2023-04-27T21:18:07.906Z,4.40
2023-04-27T21:20:36.288Z,5.10
2023-04-27T21:23:03.454Z,4.53
2023-04-27T21:25:30.181Z,4.82
2023-04-27T21:27:56.870Z,4.97
2023-04-27T21:30:23.762Z,5.03
2023-04-27T21:32:50.669Z,4.22
2023-04-27T21:35:17.550Z,4.93
2023-04-27T21:37:44.277Z,4.80
2023-04-27T21:40:11.441Z,4.65
2023-04-27T21:42:38.130Z,4.77
2023-04-27T21:45:05.251Z,4.80
2023-04-27T21:47:32.012Z,4.85
2023-04-27T21:49:58.710Z,5.00
2023-04-27T21:52:25.571Z,4.60
2023-04-27T21:54:52.276Z,4.20
2023-04-27T21:57:20.154Z,4.57
2023-04-27T21:59:47.011Z,5.00
2023-04-27T22:02:13.718Z,4.53
2023-04-27T22:04:40.610Z,4.57
2023-04-27T22:07:10.336Z,5.00
2023-04-27T22:09:37.065Z,4.30
2023-04-27T22:12:04.478Z,4.55
2023-04-27T22:14:31.509Z,5.03
2023-04-27T22:17:00.529Z,4.63
2023-04-27T22:19:27.958Z,4.40
2023-04-27T22:21:55.147Z,4.13
2023-04-27T22:24:22.214Z,4.57
2023-04-27T22:26:49.005Z,4.35
2023-04-27T22:29:16.203Z,4.40
2023-04-27T22:31:43.871Z,4.23
2023-04-27T22:34:12.907Z,4.45
2023-04-27T22:36:39.924Z,4.32
2023-04-27T22:39:07.136Z,5.00
2023-04-27T22:41:34.019Z,4.32
2023-04-27T22:44:00.896Z,5.33
2023-04-27T22:46:27.758Z,4.80
2023-04-27T22:48:54.583Z,4.82
2023-04-27T22:51:21.623Z,4.85
2023-04-27T22:53:48.864Z,4.80
2023-04-27T22:56:15.561Z,5.40
2023-04-27T22:58:42.230Z,4.80
2023-04-27T23:01:09.002Z,4.45
2023-04-27T23:03:35.962Z,4.97
2023-04-27T23:06:03.026Z,4.70
2023-04-27T23:08:29.907Z,4.80
2023-04-27T23:10:56.880Z,3.83
2023-04-27T23:13:29.682Z,4.63
2023-04-27T23:15:56.719Z,4.00
2023-04-27T23:18:23.483Z,4.43
2023-04-27T23:20:54.778Z,4.00
2023-04-27T23:23:22.007Z,4.47
2023-04-27T23:25:48.887Z,4.63
2023-04-27T23:28:15.705Z,4.50
2023-04-27T23:30:42.395Z,4.32
2023-04-27T23:33:09.164Z,5.10
2023-04-27T23:35:35.854Z,4.25
2023-04-27T23:38:02.635Z,4.28
2023-04-27T23:40:29.329Z,4.57
2023-04-27T23:42:56.191Z,4.50
2023-04-27T23:45:22.930Z,4.20
2023-04-27T23:47:49.770Z,4.57
2023-04-27T23:50:16.649Z,3.63
2023-04-27T23:52:43.368Z,4.75
2023-04-27T23:55:10.315Z,3.70
2023-04-27T23:57:37.151Z,3.80
